Lesley Pg — MXUG5 — position and weather

sailwx.info

Track history (hours):
 
Tides and Currents Weather Stations Pressure Air Temp Water Temp Dewpoint Dewpoint Depression Visibility Wind Speed Wind Dir Waves Ship Positions

Lesley Pg

Last reported at 2014-Oct-27 01:33 UTC. Time now 2014-Oct-31 20:56 UTC.
Position N 16°36' W 062°17'.

Length 102 m; draft 6.5 m.

Type: Tanker. MMSI: 234910000.

Date/timePositionNaut miles runAvg speedWind from/ knotsBaromVisibWave heightAir tempDewpointWater temp
2014-Oct-27 01:33N 16°36' W 062°17'2310.3
2014-Oct-26 23:17N 16°55' W 062°31'36 7.0
2014-Oct-26 18:08N 17°22' W 062°56'18 9.6
2014-Oct-26 16:17N 17°38' W 063°04'910.2
2014-Oct-26 15:26N 17°47' W 063°04'1010.5
2014-Oct-26 14:30N 17°56' W 063°05'5 4.4
2014-Oct-26 13:23N 18°01' W 063°05'0 0.0
2014-Oct-26 12:08N 18°01' W 063°05'0 0.0
2014-Oct-26 11:20N 18°01' W 063°05'0 0.0
2014-Oct-26 10:26N 18°01' W 063°05'0 0.0
2014-Oct-26 09:26N 18°01' W 063°05'0 0.0
2014-Oct-26 08:23N 18°01' W 063°05'0 0.0
2014-Oct-26 07:26N 18°01' W 063°05'0 0.0
2014-Oct-26 06:14N 18°01' W 063°05'0 0.0
2014-Oct-26 05:32N 18°01' W 063°05'0 0.0
2014-Oct-26 04:32N 18°01' W 063°05'0 0.0
2014-Oct-26 03:32N 18°01' W 063°05'0 0.0
2014-Oct-26 02:30N 18°01' W 063°05'0 0.0
2014-Oct-26 00:32N 18°01' W 063°05'0 0.0
2014-Oct-25 23:23N 18°01' W 063°05'0 0.0
2014-Oct-25 22:23N 18°01' W 063°05'0 0.0
2014-Oct-25 21:08N 18°01' W 063°05'0 0.0
2014-Oct-25 20:26N 18°01' W 063°05'0 0.0
2014-Oct-25 19:26N 18°01' W 063°05'0 0.0
2014-Oct-25 18:11N 18°01' W 063°05'0 0.0
2014-Oct-25 17:08N 18°01' W 063°05'0 0.0
2014-Oct-25 16:26N 18°01' W 063°05'0 0.0
2014-Oct-25 13:05N 18°01' W 063°05'0 0.0
2014-Oct-25 12:20N 18°01' W 063°05'0 0.0
2014-Oct-25 11:32N 18°01' W 063°05'0 0.0
2014-Oct-25 10:05N 18°01' W 063°05'0 0.0
2014-Oct-25 09:24N 18°01' W 063°05'0 0.0
2014-Oct-25 07:23N 18°01' W 063°05'0 0.0
2014-Oct-25 06:29N 18°01' W 063°05'0 0.0
2014-Oct-25 05:29N 18°01' W 063°05'0 0.0
2014-Oct-25 04:29N 18°01' W 063°05'0 0.0
2014-Oct-25 03:29N 18°01' W 063°05'0 0.0
2014-Oct-25 02:30N 18°01' W 063°05'0 0.0
2014-Oct-25 01:17N 18°01' W 063°05'0 0.0
2014-Oct-25 00:32N 18°01' W 063°05'0 0.0
2014-Oct-24 23:32N 18°01' W 063°05'0 0.0
2014-Oct-24 22:06N 18°01' W 063°05'1 1.8
2014-Oct-24 21:16N 17°60' W 063°05'  
2014-Oct-22 02:20N 15°51' W 061°46'  
Track history (hours):
 
Tides and Currents Weather Stations Pressure Air Temp Water Temp Dewpoint Dewpoint Depression Visibility Wind Speed Wind Dir Waves Ship Positions

Lesley Pg

Last reported at 2014-Oct-27 01:33 UTC. Time now 2014-Oct-31 20:56 UTC.
Position N 16°36' W 062°17'.

Length 102 m; draft 6.5 m.

Type: Tanker. MMSI: 234910000.

Date/timePositionNaut miles runAvg speedWind from/ knotsBaromVisibWave heightAir tempDewpointWater temp
2014-Oct-27 01:33N 16°36' W 062°17'2310.3
2014-Oct-26 23:17N 16°55' W 062°31'36 7.0
2014-Oct-26 18:08N 17°22' W 062°56'18 9.6
2014-Oct-26 16:17N 17°38' W 063°04'910.2
2014-Oct-26 15:26N 17°47' W 063°04'1010.5
2014-Oct-26 14:30N 17°56' W 063°05'5 4.4
2014-Oct-26 13:23N 18°01' W 063°05'0 0.0
2014-Oct-26 12:08N 18°01' W 063°05'0 0.0
2014-Oct-26 11:20N 18°01' W 063°05'0 0.0
2014-Oct-26 10:26N 18°01' W 063°05'0 0.0
2014-Oct-26 09:26N 18°01' W 063°05'0 0.0
2014-Oct-26 08:23N 18°01' W 063°05'0 0.0
2014-Oct-26 07:26N 18°01' W 063°05'0 0.0
2014-Oct-26 06:14N 18°01' W 063°05'0 0.0
2014-Oct-26 05:32N 18°01' W 063°05'0 0.0
2014-Oct-26 04:32N 18°01' W 063°05'0 0.0
2014-Oct-26 03:32N 18°01' W 063°05'0 0.0
2014-Oct-26 02:30N 18°01' W 063°05'0 0.0
2014-Oct-26 00:32N 18°01' W 063°05'0 0.0
2014-Oct-25 23:23N 18°01' W 063°05'0 0.0
2014-Oct-25 22:23N 18°01' W 063°05'0 0.0
2014-Oct-25 21:08N 18°01' W 063°05'0 0.0
2014-Oct-25 20:26N 18°01' W 063°05'0 0.0
2014-Oct-25 19:26N 18°01' W 063°05'0 0.0
2014-Oct-25 18:11N 18°01' W 063°05'0 0.0
2014-Oct-25 17:08N 18°01' W 063°05'0 0.0
2014-Oct-25 16:26N 18°01' W 063°05'0 0.0
2014-Oct-25 13:05N 18°01' W 063°05'0 0.0
2014-Oct-25 12:20N 18°01' W 063°05'0 0.0
2014-Oct-25 11:32N 18°01' W 063°05'0 0.0
2014-Oct-25 10:05N 18°01' W 063°05'0 0.0
2014-Oct-25 09:24N 18°01' W 063°05'0 0.0
2014-Oct-25 07:23N 18°01' W 063°05'0 0.0
2014-Oct-25 06:29N 18°01' W 063°05'0 0.0
2014-Oct-25 05:29N 18°01' W 063°05'0 0.0
2014-Oct-25 04:29N 18°01' W 063°05'0 0.0
2014-Oct-25 03:29N 18°01' W 063°05'0 0.0
2014-Oct-25 02:30N 18°01' W 063°05'0 0.0
2014-Oct-25 01:17N 18°01' W 063°05'0 0.0
2014-Oct-25 00:32N 18°01' W 063°05'0 0.0
2014-Oct-24 23:32N 18°01' W 063°05'0 0.0
2014-Oct-24 22:06N 18°01' W 063°05'1 1.8
2014-Oct-24 21:16N 17°60' W 063°05'  
2014-Oct-22 02:20N 15°51' W 061°46'  

Dump ship's entire track history